Austinburg, Ohio
Current Conditions -  °F | °C
As of 12:53 PM on Thursday 23 Oct 2014 (Local Time) from KHZY Reporting Station
Few Clouds Few Clouds  
Wind Chill: 56°   Ceiling: Unl
Heat Index: 56°   Visibility: 10mi
Dew Point: 42°   Wind: 10mph
Humidity: 60%   Direction: 340°NNW
Pressure: 30.16"   Gusts: NA
Location:  41.77°N, 80.85°W
Report Text: KHZY 231653Z AUTO 34009KT 10SM FEW029 13/06 A3016 RMK AO2 SLP216 T01330056
Loading
Personal Weather Stations






























Interactive Weather Map
Tropical Storm Tracking
New forecast layout! Learn more

10-Day Weather Forecast

Advertisements
Track Severe Weather on mobile